sensor_id;sensor_type;location;lat;lon;timestamp;P1;durP1;ratioP1;P2;durP2;ratioP2
19617;SDS011;9956;51.006;13.670;2023-11-21T00:03:56;2.15;;;1.60;;
19617;SDS011;9956;51.006;13.670;2023-11-21T00:08:57;2.22;;;1.50;;
19617;SDS011;9956;51.006;13.670;2023-11-21T00:13:57;2.50;;;1.55;;
19617;SDS011;9956;51.006;13.670;2023-11-21T00:18:58;3.20;;;1.80;;
19617;SDS011;9956;51.006;13.670;2023-11-21T00:23:58;3.47;;;2.22;;
19617;SDS011;9956;51.006;13.670;2023-11-21T00:28:59;2.72;;;2.15;;
19617;SDS011;9956;51.006;13.670;2023-11-21T00:34:00;3.03;;;2.10;;
19617;SDS011;9956;51.006;13.670;2023-11-21T00:39:00;2.08;;;1.67;;
19617;SDS011;9956;51.006;13.670;2023-11-21T00:44:03;3.13;;;1.80;;
19617;SDS011;9956;51.006;13.670;2023-11-21T00:49:03;1.65;;;1.55;;
19617;SDS011;9956;51.006;13.670;2023-11-21T00:54:04;2.75;;;1.63;;
19617;SDS011;9956;51.006;13.670;2023-11-21T00:59:05;4.85;;;2.47;;
19617;SDS011;9956;51.006;13.670;2023-11-21T01:04:05;2.58;;;2.38;;
19617;SDS011;9956;51.006;13.670;2023-11-21T01:09:08;3.88;;;2.80;;
19617;SDS011;9956;51.006;13.670;2023-11-21T01:14:08;3.22;;;2.05;;
19617;SDS011;9956;51.006;13.670;2023-11-21T01:19:10;3.33;;;2.08;;
19617;SDS011;9956;51.006;13.670;2023-11-21T01:24:10;2.17;;;1.98;;
19617;SDS011;9956;51.006;13.670;2023-11-21T01:29:12;3.38;;;2.65;;
19617;SDS011;9956;51.006;13.670;2023-11-21T01:34:13;2.58;;;2.13;;
19617;SDS011;9956;51.006;13.670;2023-11-21T01:39:15;4.78;;;2.53;;
19617;SDS011;9956;51.006;13.670;2023-11-21T01:44:16;2.80;;;1.90;;
19617;SDS011;9956;51.006;13.670;2023-11-21T01:49:17;4.03;;;2.08;;
19617;SDS011;9956;51.006;13.670;2023-11-21T01:54:18;5.68;;;2.17;;
19617;SDS011;9956;51.006;13.670;2023-11-21T01:59:20;4.20;;;2.17;;
19617;SDS011;9956;51.006;13.670;2023-11-21T02:04:21;5.50;;;2.25;;
19617;SDS011;9956;51.006;13.670;2023-11-21T02:09:28;3.88;;;2.22;;
19617;SDS011;9956;51.006;13.670;2023-11-21T02:14:33;4.03;;;2.20;;
19617;SDS011;9956;51.006;13.670;2023-11-21T02:19:33;3.58;;;1.77;;
19617;SDS011;9956;51.006;13.670;2023-11-21T02:24:34;3.67;;;2.60;;
19617;SDS011;9956;51.006;13.670;2023-11-21T02:29:35;4.00;;;2.05;;
19617;SDS011;9956;51.006;13.670;2023-11-21T02:34:35;5.20;;;1.95;;
19617;SDS011;9956;51.006;13.670;2023-11-21T02:39:37;4.22;;;2.33;;
19617;SDS011;9956;51.006;13.670;2023-11-21T02:44:38;6.00;;;2.20;;
19617;SDS011;9956;51.006;13.670;2023-11-21T02:49:38;4.07;;;1.73;;
19617;SDS011;9956;51.006;13.670;2023-11-21T02:54:39;4.75;;;1.92;;
19617;SDS011;9956;51.006;13.670;2023-11-21T02:59:39;4.22;;;2.53;;
19617;SDS011;9956;51.006;13.670;2023-11-21T03:04:40;2.80;;;2.10;;
19617;SDS011;9956;51.006;13.670;2023-11-21T03:09:40;4.18;;;2.28;;
19617;SDS011;9956;51.006;13.670;2023-11-21T03:14:41;3.22;;;1.90;;
19617;SDS011;9956;51.006;13.670;2023-11-21T03:19:41;2.95;;;2.00;;
19617;SDS011;9956;51.006;13.670;2023-11-21T03:24:42;7.80;;;2.38;;
19617;SDS011;9956;51.006;13.670;2023-11-21T03:29:43;6.22;;;1.90;;
19617;SDS011;9956;51.006;13.670;2023-11-21T03:34:54;5.55;;;2.20;;
19617;SDS011;9956;51.006;13.670;2023-11-21T03:39:56;3.35;;;1.90;;
19617;SDS011;9956;51.006;13.670;2023-11-21T03:44:56;3.05;;;1.90;;
19617;SDS011;9956;51.006;13.670;2023-11-21T03:49:57;3.78;;;2.20;;
19617;SDS011;9956;51.006;13.670;2023-11-21T03:54:58;3.50;;;2.05;;
19617;SDS011;9956;51.006;13.670;2023-11-21T03:59:58;4.72;;;2.00;;
19617;SDS011;9956;51.006;13.670;2023-11-21T04:04:59;4.72;;;2.20;;
19617;SDS011;9956;51.006;13.670;2023-11-21T04:09:59;6.93;;;2.80;;
19617;SDS011;9956;51.006;13.670;2023-11-21T04:15:00;4.43;;;2.92;;
19617;SDS011;9956;51.006;13.670;2023-11-21T04:20:00;5.78;;;3.38;;
19617;SDS011;9956;51.006;13.670;2023-11-21T04:25:01;5.78;;;3.17;;
19617;SDS011;9956;51.006;13.670;2023-11-21T04:30:02;5.78;;;3.80;;
19617;SDS011;9956;51.006;13.670;2023-11-21T04:35:02;6.90;;;3.10;;
19617;SDS011;9956;51.006;13.670;2023-11-21T04:40:04;7.85;;;3.85;;
19617;SDS011;9956;51.006;13.670;2023-11-21T04:45:06;9.30;;;4.05;;
19617;SDS011;9956;51.006;13.670;2023-11-21T04:50:11;6.40;;;4.03;;
19617;SDS011;9956;51.006;13.670;2023-11-21T04:55:12;6.25;;;3.67;;
19617;SDS011;9956;51.006;13.670;2023-11-21T05:00:12;4.70;;;3.38;;
19617;SDS011;9956;51.006;13.670;2023-11-21T05:05:13;6.68;;;3.97;;
19617;SDS011;9956;51.006;13.670;2023-11-21T05:10:14;13.18;;;4.15;;
19617;SDS011;9956;51.006;13.670;2023-11-21T05:15:15;6.65;;;3.88;;
19617;SDS011;9956;51.006;13.670;2023-11-21T05:20:17;6.72;;;4.10;;
19617;SDS011;9956;51.006;13.670;2023-11-21T05:25:20;6.68;;;3.97;;
19617;SDS011;9956;51.006;13.670;2023-11-21T05:30:21;5.80;;;4.18;;
19617;SDS011;9956;51.006;13.670;2023-11-21T05:35:22;7.05;;;3.00;;
19617;SDS011;9956;51.006;13.670;2023-11-21T05:40:22;9.40;;;3.63;;
19617;SDS011;9956;51.006;13.670;2023-11-21T05:45:23;6.75;;;3.75;;
19617;SDS011;9956;51.006;13.670;2023-11-21T05:50:23;5.82;;;3.67;;
19617;SDS011;9956;51.006;13.670;2023-11-21T05:55:24;5.88;;;3.20;;
19617;SDS011;9956;51.006;13.670;2023-11-21T06:00:26;5.45;;;3.33;;
19617;SDS011;9956;51.006;13.670;2023-11-21T06:05:28;9.50;;;3.97;;
19617;SDS011;9956;51.006;13.670;2023-11-21T06:10:28;6.70;;;3.58;;
19617;SDS011;9956;51.006;13.670;2023-11-21T06:15:29;8.82;;;4.50;;
19617;SDS011;9956;51.006;13.670;2023-11-21T06:20:29;8.63;;;4.90;;
19617;SDS011;9956;51.006;13.670;2023-11-21T06:25:30;8.65;;;4.88;;
19617;SDS011;9956;51.006;13.670;2023-11-21T06:30:33;7.90;;;4.43;;
19617;SDS011;9956;51.006;13.670;2023-11-21T06:35:33;11.05;;;5.20;;
19617;SDS011;9956;51.006;13.670;2023-11-21T06:40:35;7.00;;;4.55;;
19617;SDS011;9956;51.006;13.670;2023-11-21T06:45:35;11.77;;;5.25;;
19617;SDS011;9956;51.006;13.670;2023-11-21T06:50:36;7.30;;;4.72;;
19617;SDS011;9956;51.006;13.670;2023-11-21T06:55:36;8.02;;;4.30;;
19617;SDS011;9956;51.006;13.670;2023-11-21T07:00:37;9.57;;;4.78;;
19617;SDS011;9956;51.006;13.670;2023-11-21T07:05:37;10.65;;;6.50;;
19617;SDS011;9956;51.006;13.670;2023-11-21T07:10:38;7.15;;;4.50;;
19617;SDS011;9956;51.006;13.670;2023-11-21T07:15:41;9.02;;;5.78;;
19617;SDS011;9956;51.006;13.670;2023-11-21T07:20:43;9.00;;;6.20;;
19617;SDS011;9956;51.006;13.670;2023-11-21T07:25:44;8.32;;;5.40;;
19617;SDS011;9956;51.006;13.670;2023-11-21T07:30:44;10.80;;;5.55;;
19617;SDS011;9956;51.006;13.670;2023-11-21T07:35:44;12.93;;;6.70;;
19617;SDS011;9956;51.006;13.670;2023-11-21T07:40:45;10.20;;;5.47;;
19617;SDS011;9956;51.006;13.670;2023-11-21T07:45:46;9.45;;;5.45;;
19617;SDS011;9956;51.006;13.670;2023-11-21T07:50:47;10.70;;;5.63;;
19617;SDS011;9956;51.006;13.670;2023-11-21T07:55:48;8.20;;;5.70;;
19617;SDS011;9956;51.006;13.670;2023-11-21T08:00:48;11.07;;;5.88;;
19617;SDS011;9956;51.006;13.670;2023-11-21T08:05:49;16.23;;;7.22;;
19617;SDS011;9956;51.006;13.670;2023-11-21T08:10:50;15.10;;;6.53;;
19617;SDS011;9956;51.006;13.670;2023-11-21T08:15:56;17.52;;;7.25;;
19617;SDS011;9956;51.006;13.670;2023-11-21T08:21:02;16.35;;;7.57;;
19617;SDS011;9956;51.006;13.670;2023-11-21T08:26:05;11.30;;;6.97;;
19617;SDS011;9956;51.006;13.670;2023-11-21T08:31:05;14.52;;;8.02;;
19617;SDS011;9956;51.006;13.670;2023-11-21T08:36:09;13.75;;;7.85;;
19617;SDS011;9956;51.006;13.670;2023-11-21T08:41:12;9.15;;;7.38;;
19617;SDS011;9956;51.006;13.670;2023-11-21T08:51:42;10.82;;;6.88;;
19617;SDS011;9956;51.006;13.670;2023-11-21T08:56:44;18.50;;;6.00;;
19617;SDS011;9956;51.006;13.670;2023-11-21T09:01:46;10.60;;;6.30;;
19617;SDS011;9956;51.006;13.670;2023-11-21T09:06:47;9.05;;;5.68;;
19617;SDS011;9956;51.006;13.670;2023-11-21T09:11:47;13.38;;;7.30;;
19617;SDS011;9956;51.006;13.670;2023-11-21T09:16:49;9.82;;;6.38;;
19617;SDS011;9956;51.006;13.670;2023-11-21T09:21:50;9.23;;;8.13;;
19617;SDS011;9956;51.006;13.670;2023-11-21T09:26:51;9.23;;;7.32;;
19617;SDS011;9956;51.006;13.670;2023-11-21T09:31:52;9.68;;;6.35;;
19617;SDS011;9956;51.006;13.670;2023-11-21T09:36:52;13.88;;;7.95;;
19617;SDS011;9956;51.006;13.670;2023-11-21T09:41:56;10.43;;;6.88;;
19617;SDS011;9956;51.006;13.670;2023-11-21T09:47:00;6.95;;;6.07;;
19617;SDS011;9956;51.006;13.670;2023-11-21T09:52:02;8.90;;;6.57;;
19617;SDS011;9956;51.006;13.670;2023-11-21T09:57:05;6.68;;;5.50;;
19617;SDS011;9956;51.006;13.670;2023-11-21T10:02:06;5.20;;;4.70;;
19617;SDS011;9956;51.006;13.670;2023-11-21T10:07:13;5.50;;;4.78;;
19617;SDS011;9956;51.006;13.670;2023-11-21T10:12:15;4.32;;;3.92;;
19617;SDS011;9956;51.006;13.670;2023-11-21T10:17:16;4.20;;;3.80;;
19617;SDS011;9956;51.006;13.670;2023-11-21T10:22:19;4.97;;;3.88;;
19617;SDS011;9956;51.006;13.670;2023-11-21T10:27:20;5.07;;;4.65;;
19617;SDS011;9956;51.006;13.670;2023-11-21T10:32:20;5.22;;;4.25;;
19617;SDS011;9956;51.006;13.670;2023-11-21T10:37:21;6.40;;;5.35;;
19617;SDS011;9956;51.006;13.670;2023-11-21T10:42:21;11.15;;;6.72;;
19617;SDS011;9956;51.006;13.670;2023-11-21T10:47:24;10.45;;;7.85;;
19617;SDS011;9956;51.006;13.670;2023-11-21T10:52:26;11.52;;;8.32;;
19617;SDS011;9956;51.006;13.670;2023-11-21T10:57:27;14.15;;;10.30;;
19617;SDS011;9956;51.006;13.670;2023-11-21T11:02:27;16.95;;;11.63;;
19617;SDS011;9956;51.006;13.670;2023-11-21T11:07:28;14.77;;;11.75;;
19617;SDS011;9956;51.006;13.670;2023-11-21T11:12:30;15.43;;;10.52;;
19617;SDS011;9956;51.006;13.670;2023-11-21T11:17:31;10.52;;;8.38;;
19617;SDS011;9956;51.006;13.670;2023-11-21T11:22:56;11.88;;;9.10;;
19617;SDS011;9956;51.006;13.670;2023-11-21T11:38:33;9.35;;;8.30;;
19617;SDS011;9956;51.006;13.670;2023-11-21T11:43:34;9.10;;;7.13;;
19617;SDS011;9956;51.006;13.670;2023-11-21T11:48:43;9.18;;;8.05;;
19617;SDS011;9956;51.006;13.670;2023-11-21T11:53:46;11.45;;;7.97;;
19617;SDS011;9956;51.006;13.670;2023-11-21T11:58:47;13.07;;;8.95;;
19617;SDS011;9956;51.006;13.670;2023-11-21T12:09:23;13.32;;;10.65;;
19617;SDS011;9956;51.006;13.670;2023-11-21T12:14:24;14.35;;;11.70;;
19617;SDS011;9956;51.006;13.670;2023-11-21T12:19:25;15.20;;;11.60;;
19617;SDS011;9956;51.006;13.670;2023-11-21T12:24:26;14.82;;;11.77;;
19617;SDS011;9956;51.006;13.670;2023-11-21T12:29:29;16.60;;;12.05;;
19617;SDS011;9956;51.006;13.670;2023-11-21T12:34:29;15.85;;;11.68;;
19617;SDS011;9956;51.006;13.670;2023-11-21T12:39:30;16.88;;;12.75;;
19617;SDS011;9956;51.006;13.670;2023-11-21T12:44:31;16.95;;;12.95;;
19617;SDS011;9956;51.006;13.670;2023-11-21T12:49:31;17.10;;;13.50;;
19617;SDS011;9956;51.006;13.670;2023-11-21T12:54:34;15.07;;;12.25;;
19617;SDS011;9956;51.006;13.670;2023-11-21T12:59:35;16.05;;;12.07;;
19617;SDS011;9956;51.006;13.670;2023-11-21T13:04:38;16.85;;;11.98;;
19617;SDS011;9956;51.006;13.670;2023-11-21T13:09:39;17.55;;;15.30;;
19617;SDS011;9956;51.006;13.670;2023-11-21T13:14:40;12.45;;;9.70;;
19617;SDS011;9956;51.006;13.670;2023-11-21T13:19:40;13.55;;;9.85;;
19617;SDS011;9956;51.006;13.670;2023-11-21T13:24:42;17.40;;;14.10;;
19617;SDS011;9956;51.006;13.670;2023-11-21T13:29:43;11.10;;;9.48;;
19617;SDS011;9956;51.006;13.670;2023-11-21T13:34:43;11.77;;;9.15;;
19617;SDS011;9956;51.006;13.670;2023-11-21T13:39:48;10.18;;;8.85;;
19617;SDS011;9956;51.006;13.670;2023-11-21T13:44:55;11.68;;;9.60;;
19617;SDS011;9956;51.006;13.670;2023-11-21T13:49:56;18.05;;;15.05;;
19617;SDS011;9956;51.006;13.670;2023-11-21T13:54:57;16.08;;;12.35;;
19617;SDS011;9956;51.006;13.670;2023-11-21T13:59:59;17.38;;;14.73;;
19617;SDS011;9956;51.006;13.670;2023-11-21T14:05:21;16.30;;;12.88;;
19617;SDS011;9956;51.006;13.670;2023-11-21T14:10:29;16.60;;;12.95;;
19617;SDS011;9956;51.006;13.670;2023-11-21T14:15:43;17.83;;;13.57;;
19617;SDS011;9956;51.006;13.670;2023-11-21T14:20:46;14.98;;;11.75;;
19617;SDS011;9956;51.006;13.670;2023-11-21T14:25:46;12.80;;;10.70;;
19617;SDS011;9956;51.006;13.670;2023-11-21T14:30:48;14.75;;;10.40;;
19617;SDS011;9956;51.006;13.670;2023-11-21T14:35:48;15.38;;;11.60;;
19617;SDS011;9956;51.006;13.670;2023-11-21T14:40:50;21.65;;;13.65;;
19617;SDS011;9956;51.006;13.670;2023-11-21T14:45:50;11.68;;;8.68;;
19617;SDS011;9956;51.006;13.670;2023-11-21T14:50:51;11.00;;;7.75;;
19617;SDS011;9956;51.006;13.670;2023-11-21T14:56:03;10.73;;;9.55;;
19617;SDS011;9956;51.006;13.670;2023-11-21T15:01:04;13.02;;;10.90;;
19617;SDS011;9956;51.006;13.670;2023-11-21T15:06:06;14.77;;;10.95;;
19617;SDS011;9956;51.006;13.670;2023-11-21T15:11:21;14.00;;;10.90;;
19617;SDS011;9956;51.006;13.670;2023-11-21T15:16:27;15.98;;;12.50;;
19617;SDS011;9956;51.006;13.670;2023-11-21T15:21:28;21.33;;;13.30;;
19617;SDS011;9956;51.006;13.670;2023-11-21T15:26:28;19.70;;;14.45;;
19617;SDS011;9956;51.006;13.670;2023-11-21T15:31:29;31.85;;;20.75;;
19617;SDS011;9956;51.006;13.670;2023-11-21T15:36:29;29.70;;;18.55;;
19617;SDS011;9956;51.006;13.670;2023-11-21T15:41:30;26.40;;;17.85;;
19617;SDS011;9956;51.006;13.670;2023-11-21T15:46:30;27.92;;;18.48;;
19617;SDS011;9956;51.006;13.670;2023-11-21T15:51:31;28.92;;;18.08;;
19617;SDS011;9956;51.006;13.670;2023-11-21T15:56:31;25.35;;;15.65;;
19617;SDS011;9956;51.006;13.670;2023-11-21T16:01:34;21.55;;;14.35;;
19617;SDS011;9956;51.006;13.670;2023-11-21T16:06:35;23.17;;;16.33;;
19617;SDS011;9956;51.006;13.670;2023-11-21T16:11:39;16.52;;;12.45;;
19617;SDS011;9956;51.006;13.670;2023-11-21T16:16:39;23.48;;;15.18;;
19617;SDS011;9956;51.006;13.670;2023-11-21T16:21:40;20.33;;;13.38;;
19617;SDS011;9956;51.006;13.670;2023-11-21T16:26:44;19.48;;;14.52;;
19617;SDS011;9956;51.006;13.670;2023-11-21T16:31:45;16.75;;;11.85;;
19617;SDS011;9956;51.006;13.670;2023-11-21T16:36:47;14.43;;;10.82;;
19617;SDS011;9956;51.006;13.670;2023-11-21T16:41:51;14.10;;;10.88;;
19617;SDS011;9956;51.006;13.670;2023-11-21T16:46:52;10.88;;;8.13;;
19617;SDS011;9956;51.006;13.670;2023-11-21T16:51:57;27.63;;;18.45;;
19617;SDS011;9956;51.006;13.670;2023-11-21T16:56:58;26.80;;;19.33;;
19617;SDS011;9956;51.006;13.670;2023-11-21T17:01:58;14.32;;;10.05;;
19617;SDS011;9956;51.006;13.670;2023-11-21T17:06:59;14.32;;;10.05;;
19617;SDS011;9956;51.006;13.670;2023-11-21T17:11:59;11.15;;;8.18;;
19617;SDS011;9956;51.006;13.670;2023-11-21T17:17:02;12.15;;;8.57;;
19617;SDS011;9956;51.006;13.670;2023-11-21T17:22:02;8.90;;;8.00;;
19617;SDS011;9956;51.006;13.670;2023-11-21T17:27:05;11.30;;;8.27;;
19617;SDS011;9956;51.006;13.670;2023-11-21T17:32:06;5.78;;;4.63;;
19617;SDS011;9956;51.006;13.670;2023-11-21T17:37:06;8.77;;;4.30;;
19617;SDS011;9956;51.006;13.670;2023-11-21T17:42:07;7.82;;;4.65;;
19617;SDS011;9956;51.006;13.670;2023-11-21T17:47:07;9.35;;;8.07;;
19617;SDS011;9956;51.006;13.670;2023-11-21T17:52:11;13.45;;;10.93;;
19617;SDS011;9956;51.006;13.670;2023-11-21T17:57:12;7.18;;;6.40;;
19617;SDS011;9956;51.006;13.670;2023-11-21T18:02:12;13.23;;;11.82;;
19617;SDS011;9956;51.006;13.670;2023-11-21T18:07:13;8.55;;;7.25;;
19617;SDS011;9956;51.006;13.670;2023-11-21T18:12:13;10.30;;;8.23;;
19617;SDS011;9956;51.006;13.670;2023-11-21T18:17:14;16.55;;;11.43;;
19617;SDS011;9956;51.006;13.670;2023-11-21T18:22:18;12.13;;;9.60;;
19617;SDS011;9956;51.006;13.670;2023-11-21T18:27:18;12.13;;;9.75;;
19617;SDS011;9956;51.006;13.670;2023-11-21T18:32:20;11.45;;;9.32;;
19617;SDS011;9956;51.006;13.670;2023-11-21T18:37:24;14.75;;;11.10;;
19617;SDS011;9956;51.006;13.670;2023-11-21T18:42:24;15.85;;;12.05;;
19617;SDS011;9956;51.006;13.670;2023-11-21T18:47:27;11.02;;;9.45;;
19617;SDS011;9956;51.006;13.670;2023-11-21T18:52:27;7.28;;;5.95;;
19617;SDS011;9956;51.006;13.670;2023-11-21T18:57:28;6.57;;;5.25;;
19617;SDS011;9956;51.006;13.670;2023-11-21T19:02:31;6.20;;;5.32;;
19617;SDS011;9956;51.006;13.670;2023-11-21T19:07:31;7.90;;;6.03;;
19617;SDS011;9956;51.006;13.670;2023-11-21T19:12:36;8.13;;;6.28;;
19617;SDS011;9956;51.006;13.670;2023-11-21T19:17:39;9.07;;;7.22;;
19617;SDS011;9956;51.006;13.670;2023-11-21T19:22:39;9.95;;;6.72;;
19617;SDS011;9956;51.006;13.670;2023-11-21T19:27:40;13.35;;;11.00;;
19617;SDS011;9956;51.006;13.670;2023-11-21T19:32:40;10.57;;;8.15;;
19617;SDS011;9956;51.006;13.670;2023-11-21T19:37:41;9.82;;;7.25;;
19617;SDS011;9956;51.006;13.670;2023-11-21T19:42:42;7.82;;;6.78;;
19617;SDS011;9956;51.006;13.670;2023-11-21T19:47:42;8.85;;;6.90;;
19617;SDS011;9956;51.006;13.670;2023-11-21T19:52:43;11.07;;;7.75;;
19617;SDS011;9956;51.006;13.670;2023-11-21T19:57:43;9.35;;;6.80;;
19617;SDS011;9956;51.006;13.670;2023-11-21T20:02:44;8.82;;;5.68;;
19617;SDS011;9956;51.006;13.670;2023-11-21T20:07:44;8.80;;;6.43;;
19617;SDS011;9956;51.006;13.670;2023-11-21T20:12:44;7.18;;;5.00;;
19617;SDS011;9956;51.006;13.670;2023-11-21T20:17:45;7.07;;;5.25;;
19617;SDS011;9956;51.006;13.670;2023-11-21T20:22:45;8.10;;;6.28;;
19617;SDS011;9956;51.006;13.670;2023-11-21T20:27:47;11.15;;;8.00;;
19617;SDS011;9956;51.006;13.670;2023-11-21T20:32:47;11.32;;;8.10;;
19617;SDS011;9956;51.006;13.670;2023-11-21T20:37:50;12.07;;;9.95;;
19617;SDS011;9956;51.006;13.670;2023-11-21T20:42:51;14.68;;;10.57;;
19617;SDS011;9956;51.006;13.670;2023-11-21T20:47:52;14.63;;;10.50;;
19617;SDS011;9956;51.006;13.670;2023-11-21T20:52:52;15.77;;;11.10;;
19617;SDS011;9956;51.006;13.670;2023-11-21T20:57:53;12.93;;;9.75;;
19617;SDS011;9956;51.006;13.670;2023-11-21T21:02:55;17.55;;;12.80;;
19617;SDS011;9956;51.006;13.670;2023-11-21T21:07:55;13.07;;;10.45;;
19617;SDS011;9956;51.006;13.670;2023-11-21T21:12:57;9.57;;;7.93;;
19617;SDS011;9956;51.006;13.670;2023-11-21T21:17:58;10.30;;;8.25;;
19617;SDS011;9956;51.006;13.670;2023-11-21T21:23:01;8.15;;;6.72;;
19617;SDS011;9956;51.006;13.670;2023-11-21T21:28:01;9.80;;;7.97;;
19617;SDS011;9956;51.006;13.670;2023-11-21T21:33:02;11.23;;;9.00;;
19617;SDS011;9956;51.006;13.670;2023-11-21T21:38:02;14.98;;;10.77;;
19617;SDS011;9956;51.006;13.670;2023-11-21T21:43:03;16.13;;;11.45;;
19617;SDS011;9956;51.006;13.670;2023-11-21T21:48:04;16.15;;;12.00;;
19617;SDS011;9956;51.006;13.670;2023-11-21T21:53:05;16.00;;;12.10;;
19617;SDS011;9956;51.006;13.670;2023-11-21T21:58:07;18.83;;;14.35;;
19617;SDS011;9956;51.006;13.670;2023-11-21T22:03:08;21.10;;;15.05;;
19617;SDS011;9956;51.006;13.670;2023-11-21T22:08:09;21.80;;;15.43;;
19617;SDS011;9956;51.006;13.670;2023-11-21T22:13:09;20.63;;;14.30;;
19617;SDS011;9956;51.006;13.670;2023-11-21T22:18:10;17.38;;;15.00;;
19617;SDS011;9956;51.006;13.670;2023-11-21T22:23:11;22.13;;;15.15;;
19617;SDS011;9956;51.006;13.670;2023-11-21T22:28:11;25.00;;;16.50;;
19617;SDS011;9956;51.006;13.670;2023-11-21T22:33:12;23.45;;;16.67;;
19617;SDS011;9956;51.006;13.670;2023-11-21T22:38:14;24.55;;;17.05;;
19617;SDS011;9956;51.006;13.670;2023-11-21T22:43:15;26.65;;;18.48;;
19617;SDS011;9956;51.006;13.670;2023-11-21T22:48:16;24.95;;;17.40;;
19617;SDS011;9956;51.006;13.670;2023-11-21T22:53:17;31.30;;;18.38;;
19617;SDS011;9956;51.006;13.670;2023-11-21T22:58:17;31.38;;;19.55;;
19617;SDS011;9956;51.006;13.670;2023-11-21T23:03:18;32.63;;;20.50;;
19617;SDS011;9956;51.006;13.670;2023-11-21T23:08:18;42.08;;;21.88;;
19617;SDS011;9956;51.006;13.670;2023-11-21T23:13:19;40.75;;;22.95;;
19617;SDS011;9956;51.006;13.670;2023-11-21T23:18:19;39.95;;;22.60;;
19617;SDS011;9956;51.006;13.670;2023-11-21T23:23:27;36.92;;;22.48;;
19617;SDS011;9956;51.006;13.670;2023-11-21T23:28:27;42.63;;;24.08;;
19617;SDS011;9956;51.006;13.670;2023-11-21T23:33:28;43.55;;;24.23;;
19617;SDS011;9956;51.006;13.670;2023-11-21T23:38:30;41.67;;;24.60;;
19617;SDS011;9956;51.006;13.670;2023-11-21T23:43:31;40.95;;;24.40;;
19617;SDS011;9956;51.006;13.670;2023-11-21T23:48:31;36.55;;;24.02;;
19617;SDS011;9956;51.006;13.670;2023-11-21T23:53:31;45.88;;;25.33;;
19617;SDS011;9956;51.006;13.670;2023-11-21T23:58:33;43.78;;;25.65;;
